createdAt,value
2023-04-20T00:03:33.072Z,42.06
2023-04-20T00:08:36.914Z,41.82
2023-04-20T00:13:40.611Z,41.88
2023-04-20T00:18:46.611Z,42.38
2023-04-20T00:23:50.773Z,42.61
2023-04-20T00:28:54.477Z,42.91
2023-04-20T00:33:59.540Z,43.11
2023-04-20T00:39:04.990Z,43.09
2023-04-20T00:44:11.325Z,43.72
2023-04-20T00:49:18.090Z,43.68
2023-04-20T00:54:22.410Z,44.66
2023-04-20T00:59:26.372Z,44.36
2023-04-20T01:04:31.435Z,44.48
2023-04-20T01:09:35.457Z,45.22
2023-04-20T01:14:39.271Z,45.43
2023-04-20T01:19:44.948Z,46.32
2023-04-20T01:24:50.095Z,46.00
2023-04-20T01:29:53.853Z,46.60
2023-04-20T01:34:57.552Z,46.76
2023-04-20T01:40:03.442Z,47.24
2023-04-20T01:45:08.219Z,47.37
2023-04-20T01:50:12.299Z,47.86
2023-04-20T01:55:19.585Z,48.24
2023-04-20T02:00:24.404Z,47.89
2023-04-20T02:05:28.159Z,48.36
2023-04-20T02:10:35.816Z,48.37
2023-04-20T02:15:39.541Z,48.73
2023-04-20T02:20:43.274Z,48.72
2023-04-20T02:25:48.361Z,49.29
2023-04-20T02:30:52.249Z,49.87
2023-04-20T02:35:56.131Z,50.56
2023-04-20T02:41:01.158Z,50.87
2023-04-20T02:46:05.149Z,51.62
2023-04-20T02:51:09.040Z,53.23
2023-04-20T02:56:15.555Z,55.12
2023-04-20T03:01:19.593Z,58.01
2023-04-20T03:06:24.025Z,58.57
2023-04-20T03:11:30.069Z,62.62
2023-04-20T03:16:35.421Z,64.66
2023-04-20T03:21:40.828Z,68.12
2023-04-20T03:26:46.176Z,69.74
2023-04-20T03:31:50.726Z,76.00
2023-04-20T03:36:55.537Z,77.86
2023-04-20T03:42:01.733Z,79.58
2023-04-20T03:47:05.559Z,80.86
2023-04-20T03:52:10.463Z,79.18
2023-04-20T03:57:15.586Z,84.25
2023-04-20T04:02:19.768Z,81.95
2023-04-20T04:07:23.762Z,81.24
2023-04-20T04:12:28.893Z,84.49
2023-04-20T04:17:32.734Z,90.30
2023-04-20T04:22:36.549Z,86.35
2023-04-20T04:27:47.018Z,89.27
2023-04-20T04:32:50.989Z,88.56
2023-04-20T04:37:54.986Z,90.01
2023-04-20T04:43:00.690Z,91.02
2023-04-20T04:48:08.070Z,94.10
2023-04-20T04:53:12.602Z,91.40
2023-04-20T04:58:17.941Z,90.51
2023-04-20T05:03:21.781Z,100.00
2023-04-20T05:08:25.570Z,95.10
2023-04-20T05:13:30.599Z,94.77
2023-04-20T05:18:34.288Z,98.43
2023-04-20T05:23:38.010Z,100.00
2023-04-20T05:28:43.085Z,97.44
2023-04-20T05:33:46.776Z,100.00
2023-04-20T05:38:50.453Z,100.00
2023-04-20T05:43:56.896Z,100.00
2023-04-20T05:49:00.769Z,100.00
2023-04-20T05:54:05.039Z,100.00
2023-04-20T05:59:10.286Z,100.00
2023-04-20T06:04:14.187Z,100.00
2023-04-20T06:09:18.198Z,100.00
2023-04-20T06:14:23.449Z,100.00
2023-04-20T06:19:27.174Z,100.00
2023-04-20T06:24:30.985Z,100.00
2023-04-20T06:29:36.049Z,100.00
2023-04-20T06:34:39.709Z,100.00
2023-04-20T06:39:43.458Z,100.00
2023-04-20T06:44:48.550Z,100.00
2023-04-20T06:49:52.253Z,100.00
2023-04-20T06:54:55.990Z,100.00
2023-04-20T07:00:01.348Z,100.00
2023-04-20T07:05:05.650Z,100.00
2023-04-20T07:10:11.093Z,100.00
2023-04-20T07:15:16.161Z,100.00
2023-04-20T07:20:19.849Z,100.00
2023-04-20T07:25:24.492Z,100.00
2023-04-20T07:30:31.197Z,100.00
2023-04-20T07:35:34.951Z,100.00
2023-04-20T07:40:38.729Z,100.00
2023-04-20T07:45:43.950Z,100.00
2023-04-20T07:50:48.007Z,100.00
2023-04-20T07:55:51.943Z,100.00
2023-04-20T08:00:57.335Z,100.00
2023-04-20T08:06:01.091Z,100.00
2023-04-20T08:11:08.127Z,100.00
2023-04-20T08:16:13.741Z,100.00
2023-04-20T08:21:17.512Z,100.00
2023-04-20T08:26:25.248Z,98.31
2023-04-20T08:31:30.549Z,96.54
2023-04-20T08:36:34.290Z,96.89
2023-04-20T08:41:38.301Z,95.90
2023-04-20T08:46:48.231Z,93.59
2023-04-20T08:51:52.783Z,91.70
2023-04-20T08:56:57.015Z,92.10
2023-04-20T09:02:12.037Z,89.95
2023-04-20T09:07:20.150Z,86.71
2023-04-20T09:12:24.831Z,86.16
2023-04-20T09:17:34.646Z,85.19
2023-04-20T09:22:39.462Z,85.43
2023-04-20T09:27:43.335Z,85.65
2023-04-20T09:32:49.115Z,87.36
2023-04-20T09:37:54.217Z,85.34
2023-04-20T09:43:04.040Z,84.50
2023-04-20T09:48:09.854Z,84.23
2023-04-20T09:53:14.615Z,83.47
2023-04-20T09:58:20.303Z,83.95
2023-04-20T10:03:26.162Z,83.69
2023-04-20T10:08:41.635Z,84.98
2023-04-20T10:13:45.369Z,88.38
2023-04-20T10:19:01.902Z,91.03
2023-04-20T10:24:06.403Z,93.11
2023-04-20T10:29:10.621Z,94.85
2023-04-20T10:34:15.878Z,97.10
2023-04-20T10:39:22.729Z,98.96
2023-04-20T10:44:26.920Z,100.00
2023-04-20T10:49:32.339Z,100.00
2023-04-20T10:54:38.938Z,100.00
2023-04-20T10:59:42.738Z,100.00
2023-04-20T11:04:48.599Z,100.00
2023-04-20T11:09:56.185Z,99.79
2023-04-20T11:15:02.932Z,98.40
2023-04-20T11:20:11.039Z,97.02
2023-04-20T11:25:14.789Z,91.68
2023-04-20T11:30:18.606Z,84.04
2023-04-20T11:35:23.853Z,78.36
2023-04-20T11:40:28.499Z,74.26
2023-04-20T11:45:36.332Z,72.03
2023-04-20T11:50:42.631Z,74.35
2023-04-20T11:55:46.462Z,72.87
2023-04-20T12:00:50.217Z,70.78
2023-04-20T12:05:55.492Z,69.00
2023-04-20T12:10:59.464Z,69.17
2023-04-20T12:16:03.207Z,87.31
2023-04-20T12:21:08.516Z,94.57
2023-04-20T12:26:12.228Z,90.68
2023-04-20T12:31:16.108Z,90.42
2023-04-20T12:36:21.188Z,100.00
2023-04-20T12:41:25.277Z,100.00
2023-04-20T12:46:29.265Z,100.00
2023-04-20T12:51:34.516Z,100.00
2023-04-20T12:56:38.229Z,100.00
2023-04-20T13:01:41.963Z,100.00
2023-04-20T13:06:47.058Z,100.00
2023-04-20T13:11:50.782Z,100.00
2023-04-20T13:16:55.530Z,100.00
2023-04-20T13:22:00.885Z,100.00
2023-04-20T13:27:04.787Z,100.00
2023-04-20T13:32:08.600Z,93.98
2023-04-20T13:37:13.899Z,75.94
2023-04-20T13:42:17.683Z,67.38
2023-04-20T13:47:21.574Z,67.84
2023-04-20T13:52:26.837Z,70.09
2023-04-20T13:57:31.627Z,74.79
2023-04-20T14:02:35.506Z,76.57
2023-04-20T14:07:40.671Z,75.50
2023-04-20T14:12:44.389Z,80.00
2023-04-20T14:17:51.745Z,80.08
2023-04-20T14:22:57.542Z,82.51
2023-04-20T14:28:01.708Z,82.73
2023-04-20T14:33:06.587Z,83.01
2023-04-20T14:38:11.780Z,84.71
2023-04-20T14:43:15.562Z,83.47
2023-04-20T14:48:19.352Z,85.94
2023-04-20T14:53:24.522Z,84.00
2023-04-20T14:58:28.287Z,80.99
2023-04-20T15:03:32.332Z,79.77
2023-04-20T15:08:37.700Z,76.98
2023-04-20T15:13:42.419Z,69.05
2023-04-20T15:18:46.538Z,65.02
2023-04-20T15:23:51.853Z,62.70
2023-04-20T15:28:56.600Z,67.28
2023-04-20T15:34:01.392Z,70.13
2023-04-20T15:39:07.193Z,69.90
2023-04-20T15:44:10.944Z,70.04
2023-04-20T15:49:15.253Z,70.45
2023-04-20T15:54:23.673Z,72.14
2023-04-20T15:59:27.218Z,71.50
2023-04-20T16:04:30.914Z,72.15
2023-04-20T16:09:36.125Z,71.27
2023-04-20T16:14:39.888Z,69.53
2023-04-20T16:19:43.858Z,68.78
2023-04-20T16:24:49.317Z,68.71
2023-04-20T16:29:53.456Z,68.10
2023-04-20T16:34:57.492Z,67.56
2023-04-20T16:40:04.607Z,68.13
2023-04-20T16:45:09.631Z,68.83
2023-04-20T16:50:19.292Z,68.56
2023-04-20T16:55:25.857Z,68.13
2023-04-20T17:00:30.123Z,66.88
2023-04-20T17:05:33.888Z,67.42
2023-04-20T17:10:39.384Z,65.79
2023-04-20T17:15:45.057Z,65.58
2023-04-20T17:20:49.453Z,65.09
2023-04-20T17:25:54.746Z,63.24
2023-04-20T17:30:58.465Z,63.74
2023-04-20T17:36:02.201Z,64.35
2023-04-20T17:41:07.344Z,65.23
2023-04-20T17:46:11.187Z,66.16
2023-04-20T17:51:15.086Z,65.81
2023-04-20T17:56:20.180Z,65.98
2023-04-20T18:01:24.047Z,67.08
2023-04-20T18:06:27.930Z,67.79
2023-04-20T18:11:33.003Z,68.63
2023-04-20T18:16:36.810Z,70.61
2023-04-20T18:21:40.929Z,73.14
2023-04-20T18:26:46.279Z,74.82
2023-04-20T18:31:53.402Z,76.83
2023-04-20T18:36:57.861Z,78.96
2023-04-20T18:42:03.329Z,81.29
2023-04-20T18:47:07.130Z,83.12
2023-04-20T18:52:11.281Z,85.58
2023-04-20T18:57:16.707Z,88.23
2023-04-20T19:02:20.603Z,88.89
2023-04-20T19:07:24.438Z,93.96
2023-04-20T19:12:29.476Z,91.88
2023-04-20T19:17:33.508Z,92.40
2023-04-20T19:22:37.491Z,92.84
2023-04-20T19:27:43.059Z,95.11
2023-04-20T19:32:47.196Z,97.82
2023-04-20T19:37:51.013Z,99.34
2023-04-20T19:42:56.313Z,100.00
2023-04-20T19:48:00.460Z,100.00
2023-04-20T19:53:04.703Z,100.00
2023-04-20T19:58:10.935Z,100.00
2023-04-20T20:03:16.076Z,100.00
2023-04-20T20:08:20.460Z,100.00
2023-04-20T20:13:26.608Z,100.00
2023-04-20T20:18:31.099Z,100.00
2023-04-20T20:23:35.025Z,100.00
2023-04-20T20:28:40.345Z,100.00
2023-04-20T20:33:44.348Z,100.00
2023-04-20T20:38:48.556Z,100.00
2023-04-20T20:43:55.227Z,100.00
2023-04-20T20:49:00.969Z,100.00
2023-04-20T20:54:05.905Z,100.00
2023-04-20T20:59:11.382Z,100.00
2023-04-20T21:04:15.313Z,100.00
2023-04-20T21:09:19.243Z,100.00
2023-04-20T21:14:24.658Z,100.00
2023-04-20T21:19:28.374Z,100.00
2023-04-20T21:24:32.085Z,100.00
2023-04-20T21:29:37.125Z,100.00
2023-04-20T21:34:40.817Z,100.00
2023-04-20T21:39:44.559Z,100.00
2023-04-20T21:44:49.592Z,100.00
2023-04-20T21:49:53.351Z,100.00
2023-04-20T21:54:57.032Z,100.00
2023-04-20T22:00:02.165Z,100.00
2023-04-20T22:05:08.089Z,100.00
2023-04-20T22:10:11.844Z,100.00
2023-04-20T22:15:17.156Z,100.00
2023-04-20T22:20:20.974Z,100.00
2023-04-20T22:25:25.608Z,100.00
2023-04-20T22:30:30.779Z,100.00
2023-04-20T22:35:34.475Z,100.00
2023-04-20T22:40:38.225Z,100.00
2023-04-20T22:45:43.421Z,100.00
2023-04-20T22:50:47.117Z,100.00
2023-04-20T22:55:50.823Z,100.00
2023-04-20T23:00:56.002Z,100.00
2023-04-20T23:05:59.751Z,100.00
2023-04-20T23:11:04.678Z,100.00
2023-04-20T23:16:10.315Z,100.00
2023-04-20T23:21:14.114Z,100.00
2023-04-20T23:26:17.842Z,100.00
2023-04-20T23:31:23.224Z,100.00
2023-04-20T23:36:27.369Z,100.00
2023-04-20T23:41:31.602Z,100.00
2023-04-20T23:46:36.632Z,100.00
2023-04-20T23:51:40.426Z,100.00
2023-04-20T23:56:44.168Z,100.00
